Main page
METAR-TAF:

METAR-TAF

Airports :

Cranfield, England

Cranfield Airport

latitude: 52-04N, longitude: 000-37W, elevation: 111 m

Current weather observation

The report was made 6 hours and 35 minutes ago, at 16:50 UTC
Wind 13 kt from the Southwest
Temperature 22°C
Humidity 53%
Pressure 1010 hPa
Visibility 10 km or more
Few clouds at a height of 4900 ft

METAR: EGTC 171650Z 23013KT 9999 FEW049 22/12 Q1010

Time: 00:25 (23:25 UTC)

Forecast

The report was made 9 hours and 24 minutes ago, at 14:01 UTC
Forecast valid from 17 at 15 UTC to 17 at 18 UTC
Wind 12 kt from the South/Southwest
Visibility 10 km or more
Scattered clouds at a height of 4000 ft
Probability 30% :
Temporary
from 17 at 15 UTC to 17 at 18 UTC
Wind 15 kt from the South/Southwest with gusts up to 25 kt
Visibility: 7000 m
rain showers

TAF: EGTC 171401Z 1715/1718 20012KT 9999 SCT040 PROB30 TEMPO 1715/1718 21015G25KT 7000 SHRA

Weather observations and forecasts of more than 4000 airports (METAR and TAF reports).

The available stations are represented by yellow and red dots on the map.

Hover mouse over dot to see the name of the station.

Then click to see weather observations and forecasts.

To change the map : click on the green buttons with a black cross to zoom in, on the green button with a dash to zoom out, or on the green arrows for adjacent maps.


METAR-TAF: